Time;durP1;ratioP1;P1;durP2;ratioP2;P2;SDS_P1;SDS_P2;PMS_P1;PMS_P2;Temp;Humidity;BMP_temperature;BMP_pressure;BME280_temperature;BME280_humidity;BME280_pressure;Samples;Min_cycle;Max_cycle;Signal;HPM_P1;HPM_P2
2022/11/27 00:01:14;;;;;;;29.08;14.45;;;8.10;96.30;;;;;;5107249;28;20033;-55
2022/11/27 00:03:39;;;;;;;24.33;13.88;;;8.10;96.40;;;;;;5125854;28;20480;-56
2022/11/27 00:06:05;;;;;;;29.02;15.43;;;8.10;96.40;;;;;;5106353;28;20031;-56
2022/11/27 00:08:30;;;;;;;29.52;14.60;;;8.10;96.40;;;;;;5090743;28;20130;-56
2022/11/27 00:10:56;;;;;;;27.67;13.98;;;8.10;96.40;;;;;;5107296;28;20030;-55
2022/11/27 00:13:21;;;;;;;22.33;14.30;;;8.10;96.40;;;;;;5107385;28;20035;-56
2022/11/27 00:15:47;;;;;;;30.83;13.73;;;8.10;96.50;;;;;;5090483;28;20028;-55
2022/11/27 00:18:13;;;;;;;25.58;13.70;;;8.10;96.50;;;;;;5107499;28;20023;-56
2022/11/27 00:20:38;;;;;;;31.70;15.10;;;8.10;96.50;;;;;;5125677;28;20034;-56
2022/11/27 00:23:04;;;;;;;23.42;14.57;;;8.10;96.60;;;;;;5090688;28;20027;-56
2022/11/27 00:25:30;;;;;;;21.98;12.85;;;8.00;96.50;;;;;;5090622;28;20108;-55
2022/11/27 00:27:55;;;;;;;24.80;13.68;;;8.00;96.60;;;;;;5107299;28;20451;-55
2022/11/27 00:30:21;;;;;;;26.90;14.63;;;8.00;96.60;;;;;;5107203;28;20083;-55
2022/11/27 00:32:46;;;;;;;25.38;13.90;;;8.00;96.70;;;;;;5107429;28;20039;-56
2022/11/27 00:35:12;;;;;;;24.83;13.88;;;8.00;96.80;;;;;;5107296;28;20023;-56
2022/11/27 00:37:37;;;;;;;23.10;12.98;;;8.00;96.80;;;;;;5090364;28;20433;-56
2022/11/27 00:40:03;;;;;;;24.77;13.75;;;8.00;96.70;;;;;;5125632;28;20035;-55
2022/11/27 00:42:29;;;;;;;21.55;13.93;;;8.00;96.80;;;;;;5125213;28;20028;-55
2022/11/27 00:44:55;;;;;;;24.20;13.88;;;8.00;96.80;;;;;;5125523;28;20045;-55
2022/11/27 00:47:20;;;;;;;23.27;12.88;;;8.00;96.80;;;;;;5125288;28;20091;-56
2022/11/27 00:49:46;;;;;;;28.48;13.75;;;8.00;96.90;;;;;;5125407;28;20469;-56
2022/11/27 00:52:11;;;;;;;24.63;13.80;;;8.00;97.20;;;;;;5125200;28;20485;-56
2022/11/27 00:54:37;;;;;;;22.63;13.60;;;8.00;97.00;;;;;;5125341;28;20426;-55
2022/11/27 00:57:03;;;;;;;20.60;12.98;;;8.00;97.00;;;;;;5125390;28;20024;-55
2022/11/27 00:59:28;;;;;;;20.48;13.88;;;8.00;97.00;;;;;;5106936;28;20358;-56
2022/11/27 01:01:54;;;;;;;20.08;12.98;;;8.00;97.10;;;;;;5106868;28;20020;-56
2022/11/27 01:04:19;;;;;;;22.38;13.60;;;8.00;97.10;;;;;;5125128;28;20024;-56
2022/11/27 01:06:45;;;;;;;24.30;13.73;;;8.00;97.10;;;;;;5125313;28;20051;-55
2022/11/27 01:09:11;;;;;;;23.85;13.02;;;8.00;97.10;;;;;;5125550;28;20019;-55
2022/11/27 01:11:37;;;;;;;21.88;12.55;;;8.00;97.10;;;;;;5106886;28;20163;-55
2022/11/27 01:14:05;;;;;;;20.70;12.88;;;8.00;97.10;;;;;;5089707;28;20072;-55
2022/11/27 01:16:32;;;;;;;18.85;13.05;;;8.00;97.20;;;;;;5090348;28;20027;-56
2022/11/27 01:18:58;;;;;;;22.45;12.98;;;8.00;97.20;;;;;;5128852;28;20099;-55
2022/11/27 01:21:24;;;;;;;23.63;12.80;;;8.00;97.20;;;;;;5129198;28;20095;-56
2022/11/27 01:23:49;;;;;;;21.33;13.55;;;8.00;97.30;;;;;;5093427;28;20315;-55
2022/11/27 01:26:16;;;;;;;24.25;13.68;;;8.00;97.30;;;;;;5093630;28;20085;-56
2022/11/27 01:28:42;;;;;;;24.85;12.32;;;8.00;97.30;;;;;;5093640;28;20023;-55
2022/11/27 01:31:10;;;;;;;19.98;12.23;;;8.00;97.40;;;;;;5110377;28;20082;-55
2022/11/27 01:33:35;;;;;;;22.83;13.18;;;8.00;97.40;;;;;;5128759;28;20032;-55
2022/11/27 01:36:02;;;;;;;17.90;13.00;;;8.00;97.40;;;;;;5128367;28;20031;-56
2022/11/27 01:38:28;;;;;;;20.15;12.80;;;7.90;97.40;;;;;;5093475;28;20031;-55
2022/11/27 01:41:03;;;;;;;21.80;12.43;;;7.90;97.40;;;;;;5110015;28;20024;-55
2022/11/27 01:43:45;;;;;;;21.55;12.50;;;7.90;97.40;;;;;;5093413;28;20036;-56
2022/11/27 01:46:23;;;;;;;22.13;13.98;;;7.90;97.70;;;;;;5128611;28;20019;-56
2022/11/27 01:48:49;;;;;;;21.23;12.70;;;7.90;97.50;;;;;;5109763;28;20036;-56
2022/11/27 01:51:15;;;;;;;18.42;12.27;;;7.90;97.50;;;;;;5076530;28;20111;-56
2022/11/27 01:53:40;;;;;;;20.95;13.43;;;7.90;97.50;;;;;;5093291;28;20127;-56
2022/11/27 01:56:07;;;;;;;21.00;12.63;;;7.90;97.50;;;;;;5109915;28;20210;-56
2022/11/27 01:58:32;;;;;;;18.40;12.65;;;7.90;97.50;;;;;;5128307;28;20088;-55
2022/11/27 02:00:58;;;;;;;17.88;12.70;;;7.90;97.50;;;;;;5092967;28;20024;-56
2022/11/27 02:03:23;;;;;;;15.63;11.77;;;7.90;97.80;;;;;;5109846;28;20055;-55
2022/11/27 02:05:49;;;;;;;21.30;11.95;;;7.90;97.60;;;;;;5092497;28;20429;-55
2022/11/27 02:08:15;;;;;;;14.80;11.32;;;7.90;97.60;;;;;;5109670;28;20030;-55
2022/11/27 02:10:56;;;;;;;16.92;12.15;;;7.90;97.60;;;;;;5092540;28;20031;-55
2022/11/27 02:13:28;;;;;;;22.05;13.02;;;7.90;97.60;;;;;;5127792;28;20031;-56
2022/11/27 02:16:02;;;;;;;19.60;12.38;;;7.90;97.60;;;;;;5109331;28;20028;-56
2022/11/27 02:18:36;;;;;;;16.45;11.80;;;7.90;97.60;;;;;;5093341;28;20053;-56
2022/11/27 02:21:06;;;;;;;18.58;12.60;;;7.90;97.60;;;;;;5110409;28;20028;-55
2022/11/27 02:23:32;;;;;;;16.85;12.52;;;7.90;97.60;;;;;;5109409;28;20057;-55
2022/11/27 02:26:28;;;;;;;19.08;12.55;;;7.90;97.60;;;;;;5127283;28;20059;-55
2022/11/27 02:29:03;;;;;;;18.83;11.90;;;7.90;97.60;;;;;;5126541;28;20039;-55
2022/11/27 02:31:57;;;;;;;18.10;11.65;;;7.90;97.60;;;;;;5108953;28;20039;-56
2022/11/27 02:34:49;;;;;;;18.15;12.43;;;7.90;97.60;;;;;;5127461;28;20114;-55
2022/11/27 02:37:52;;;;;;;20.90;13.07;;;7.90;97.60;;;;;;5093450;28;20115;-55
2022/11/27 02:40:30;;;;;;;18.13;12.77;;;7.80;97.60;;;;;;5057438;28;20035;-55
2022/11/27 02:43:23;;;;;;;19.42;11.32;;;7.90;97.60;;;;;;5093275;28;20065;-56
2022/11/27 02:45:50;;;;;;;15.98;12.23;;;7.80;97.60;;;;;;5110504;28;20040;-55
2022/11/27 02:48:17;;;;;;;18.25;11.80;;;7.80;97.60;;;;;;5092025;28;20035;-56
2022/11/27 02:50:43;;;;;;;16.38;10.95;;;7.80;97.60;;;;;;5092006;28;20143;-55
2022/11/27 02:53:14;;;;;;;17.63;11.65;;;7.80;97.60;;;;;;5108588;28;20047;-56
2022/11/27 02:55:39;;;;;;;15.18;11.13;;;7.80;97.60;;;;;;5092163;28;20480;-56
2022/11/27 02:58:09;;;;;;;16.77;11.45;;;7.80;97.60;;;;;;5108766;28;20087;-55
2022/11/27 03:00:34;;;;;;;16.38;11.07;;;7.80;97.60;;;;;;5108276;28;20043;-55
2022/11/27 03:03:03;;;;;;;16.50;11.43;;;7.80;97.60;;;;;;5091469;28;20020;-56
2022/11/27 03:05:31;;;;;;;18.17;10.82;;;7.80;97.60;;;;;;5091692;28;20043;-55
2022/11/27 03:08:09;;;;;;;18.08;11.23;;;7.80;97.60;;;;;;5091233;28;20035;-55
2022/11/27 03:11:03;;;;;;;16.25;11.05;;;7.80;97.60;;;;;;5091814;28;20041;-56
2022/11/27 03:13:29;;;;;;;16.33;11.48;;;7.80;97.60;;;;;;5126527;28;20035;-56
2022/11/27 03:16:11;;;;;;;17.40;11.80;;;7.80;97.50;;;;;;5091090;28;20114;-55
2022/11/27 03:18:41;;;;;;;17.70;11.57;;;7.80;97.50;;;;;;5090923;28;20123;-55
2022/11/27 03:21:36;;;;;;;20.30;11.18;;;7.80;97.50;;;;;;5091582;28;20023;-55
2022/11/27 03:24:02;;;;;;;16.05;11.45;;;7.80;97.50;;;;;;5108226;28;20110;-56
2022/11/27 03:26:27;;;;;;;16.60;12.00;;;7.80;97.50;;;;;;5090945;28;20039;-55
2022/11/27 03:28:53;;;;;;;17.00;11.32;;;7.80;97.50;;;;;;5126237;28;20076;-55
2022/11/27 03:31:19;;;;;;;14.18;10.60;;;7.80;97.50;;;;;;5090954;28;20023;-56
2022/11/27 03:33:45;;;;;;;14.15;11.07;;;7.80;97.50;;;;;;5107793;28;20036;-55
2022/11/27 03:36:15;;;;;;;15.15;11.10;;;7.70;97.50;;;;;;5090767;28;20421;-55
2022/11/27 03:38:41;;;;;;;15.38;11.57;;;7.80;97.50;;;;;;5091127;28;20019;-55
2022/11/27 03:41:45;;;;;;;15.32;10.77;;;7.70;97.50;;;;;;5090453;28;20024;-56
2022/11/27 03:44:23;;;;;;;14.65;10.80;;;7.80;97.60;;;;;;5126272;28;20056;-56
2022/11/27 03:47:01;;;;;;;12.90;10.35;;;7.80;97.50;;;;;;5125901;28;20037;-55
2022/11/27 03:50:05;;;;;;;16.27;11.32;;;7.80;97.50;;;;;;5126170;28;20030;-55
2022/11/27 03:52:55;;;;;;;13.27;10.50;;;7.80;97.40;;;;;;5125845;28;20438;-55
2022/11/27 03:55:25;;;;;;;16.52;10.82;;;7.80;97.40;;;;;;5125734;28;20035;-56
2022/11/27 03:57:59;;;;;;;14.93;11.15;;;7.80;97.40;;;;;;5090886;28;20093;-55
2022/11/27 04:00:25;;;;;;;14.75;11.05;;;7.80;97.40;;;;;;5091100;28;20019;-55
2022/11/27 04:02:51;;;;;;;12.88;10.13;;;7.80;97.40;;;;;;5090644;28;20468;-56
2022/11/27 04:05:17;;;;;;;15.10;10.98;;;7.70;97.40;;;;;;5125282;28;20027;-56
2022/11/27 04:07:43;;;;;;;14.50;10.75;;;7.70;97.40;;;;;;5125301;28;20035;-55
2022/11/27 04:10:09;;;;;;;17.00;11.10;;;7.70;97.40;;;;;;5090275;28;20411;-56
2022/11/27 04:12:35;;;;;;;13.73;10.85;;;7.80;97.40;;;;;;5107133;28;20032;-55
2022/11/27 04:15:00;;;;;;;13.93;11.02;;;7.70;97.40;;;;;;5107527;28;20118;-56
2022/11/27 04:17:26;;;;;;;13.98;10.98;;;7.80;97.40;;;;;;5107374;28;20026;-55
2022/11/27 04:19:52;;;;;;;14.18;10.45;;;7.70;97.40;;;;;;5090342;28;20096;-55
2022/11/27 04:22:17;;;;;;;14.50;11.52;;;7.70;97.30;;;;;;5107314;28;20042;-56
2022/11/27 04:24:43;;;;;;;14.55;10.18;;;7.70;97.30;;;;;;5125426;28;20055;-55
2022/11/27 04:27:08;;;;;;;13.18;10.57;;;7.70;97.40;;;;;;5090211;28;20027;-55
2022/11/27 04:29:35;;;;;;;14.65;11.38;;;7.70;97.40;;;;;;5125626;28;20085;-55
2022/11/27 04:32:01;;;;;;;15.07;10.77;;;7.70;97.40;;;;;;5107302;28;20380;-56
2022/11/27 04:34:27;;;;;;;13.18;10.35;;;7.70;97.40;;;;;;5090163;28;20036;-56
2022/11/27 04:36:52;;;;;;;13.45;10.43;;;7.70;97.40;;;;;;5125502;28;20045;-55
2022/11/27 04:39:18;;;;;;;15.98;11.75;;;7.70;97.40;;;;;;5125266;28;20087;-55
2022/11/27 04:41:43;;;;;;;14.57;10.15;;;7.70;97.40;;;;;;5125218;28;20042;-56
2022/11/27 04:44:10;;;;;;;13.55;10.50;;;7.70;97.40;;;;;;5106835;28;20067;-56
2022/11/27 04:46:36;;;;;;;14.25;10.13;;;7.70;97.40;;;;;;5106881;28;20023;-56
2022/11/27 04:49:01;;;;;;;14.00;10.52;;;7.70;97.40;;;;;;5106969;28;20046;-55
2022/11/27 04:51:27;;;;;;;13.85;10.77;;;7.70;97.40;;;;;;5089985;28;20047;-55
2022/11/27 04:53:52;;;;;;;12.68;10.55;;;7.70;97.30;;;;;;5129473;28;20031;-56
2022/11/27 04:56:18;;;;;;;14.90;11.25;;;7.70;97.30;;;;;;5128946;28;20034;-55
2022/11/27 04:58:43;;;;;;;16.90;11.55;;;7.70;97.30;;;;;;5129094;28;20035;-56
2022/11/27 05:01:09;;;;;;;14.30;11.25;;;7.70;97.40;;;;;;5093769;28;20019;-55
2022/11/27 05:03:35;;;;;;;14.88;10.63;;;7.70;97.70;;;;;;5129029;28;20206;-55
2022/11/27 05:06:00;;;;;;;11.88;10.57;;;7.70;97.40;;;;;;5110432;28;20023;-55
2022/11/27 05:08:28;;;;;;;13.68;10.95;;;7.60;97.30;;;;;;5128921;28;20046;-56
2022/11/27 05:11:04;;;;;;;13.45;10.32;;;7.60;97.30;;;;;;5110430;28;20034;-56
2022/11/27 05:13:29;;;;;;;13.18;10.73;;;7.70;97.40;;;;;;5111253;28;20053;-56
2022/11/27 05:15:55;;;;;;;12.15;10.32;;;7.70;97.30;;;;;;5110175;28;20059;-55
2022/11/27 05:18:21;;;;;;;14.95;10.07;;;7.70;97.30;;;;;;5110481;28;20039;-55
2022/11/27 05:20:46;;;;;;;12.45;10.27;;;7.60;97.30;;;;;;5110425;28;20357;-55
2022/11/27 05:23:12;;;;;;;13.80;10.20;;;7.60;97.30;;;;;;5110204;28;20036;-56
2022/11/27 05:25:37;;;;;;;12.93;10.13;;;7.60;97.20;;;;;;5128750;28;20066;-55
2022/11/27 05:28:03;;;;;;;12.88;10.20;;;7.60;97.20;;;;;;5110225;28;20111;-55
2022/11/27 05:30:29;;;;;;;13.50;10.30;;;7.60;97.20;;;;;;5093052;28;20028;-56
2022/11/27 05:32:54;;;;;;;14.35;10.68;;;7.60;97.20;;;;;;5128330;28;20046;-55
2022/11/27 05:35:20;;;;;;;13.40;10.10;;;7.60;97.20;;;;;;5076284;28;20031;-56
2022/11/27 05:37:45;;;;;;;11.13;9.75;;;7.60;97.10;;;;;;5094030;28;20084;-55
2022/11/27 05:40:11;;;;;;;13.13;10.15;;;7.60;97.10;;;;;;5110546;28;20133;-56
2022/11/27 05:42:37;;;;;;;13.23;10.27;;;7.60;97.10;;;;;;5128358;28;20028;-56
2022/11/27 05:45:03;;;;;;;11.60;9.02;;;7.60;97.00;;;;;;5093709;28;20114;-55
2022/11/27 05:47:28;;;;;;;12.45;9.93;;;7.60;97.00;;;;;;5128552;28;20023;-55
2022/11/27 05:49:54;;;;;;;10.10;8.68;;;7.60;97.00;;;;;;5109993;28;20035;-55
2022/11/27 05:52:19;;;;;;;13.05;9.50;;;7.60;97.00;;;;;;5128118;28;20020;-56
2022/11/27 05:54:45;;;;;;;12.23;10.07;;;7.60;97.00;;;;;;5109810;28;20021;-55
2022/11/27 05:57:10;;;;;;;13.43;9.55;;;7.60;97.10;;;;;;5128124;28;20437;-55
2022/11/27 05:59:36;;;;;;;10.60;9.13;;;7.60;97.10;;;;;;5127907;28;20444;-55
2022/11/27 06:02:01;;;;;;;10.95;9.38;;;7.60;97.10;;;;;;5109401;28;20334;-56
2022/11/27 06:04:27;;;;;;;10.73;8.73;;;7.60;97.20;;;;;;5109334;28;20024;-56
2022/11/27 06:06:53;;;;;;;12.82;9.43;;;7.60;97.20;;;;;;5109494;28;20031;-56
2022/11/27 06:09:18;;;;;;;12.15;9.40;;;7.60;97.20;;;;;;5092374;28;20408;-55
2022/11/27 06:11:44;;;;;;;11.02;9.45;;;7.60;97.20;;;;;;5109331;28;20477;-55
2022/11/27 06:14:09;;;;;;;11.75;9.07;;;7.60;97.20;;;;;;5109244;28;20087;-55
2022/11/27 06:16:35;;;;;;;10.75;9.05;;;7.60;97.20;;;;;;5127278;28;20057;-55
2022/11/27 06:19:00;;;;;;;11.10;8.70;;;7.60;97.20;;;;;;5092449;28;20028;-56
2022/11/27 06:21:26;;;;;;;11.63;9.05;;;7.70;97.20;;;;;;5092056;28;20027;-56
2022/11/27 06:23:55;;;;;;;10.32;8.70;;;7.60;97.20;;;;;;5109096;28;20024;-56
2022/11/27 06:26:25;;;;;;;9.90;8.85;;;7.60;97.20;;;;;;5109129;28;20023;-55
2022/11/27 06:28:51;;;;;;;10.98;8.93;;;7.70;97.20;;;;;;5109337;28;20023;-55
2022/11/27 06:31:22;;;;;;;10.38;9.23;;;7.70;97.20;;;;;;5128004;28;20081;-56
2022/11/27 06:33:48;;;;;;;12.70;9.55;;;7.70;97.10;;;;;;5108965;28;20477;-55
2022/11/27 06:36:13;;;;;;;9.75;8.50;;;7.70;97.10;;;;;;5127697;28;20087;-56
2022/11/27 06:38:39;;;;;;;11.73;8.93;;;7.60;97.10;;;;;;5091858;28;20410;-56
2022/11/27 06:41:06;;;;;;;11.40;9.27;;;7.70;97.30;;;;;;5108715;28;20024;-56
2022/11/27 06:43:32;;;;;;;10.55;8.57;;;7.70;97.00;;;;;;5108885;28;20045;-55
2022/11/27 06:45:58;;;;;;;10.85;9.07;;;7.70;96.90;;;;;;5091808;28;20031;-56
2022/11/27 06:48:23;;;;;;;10.18;8.40;;;7.70;96.90;;;;;;5108600;28;20024;-56
2022/11/27 06:50:49;;;;;;;11.50;8.68;;;7.60;96.80;;;;;;5126824;28;20027;-56
2022/11/27 06:53:15;;;;;;;12.68;9.18;;;7.70;96.80;;;;;;5108558;28;20039;-55
2022/11/27 06:55:40;;;;;;;9.70;8.30;;;7.70;96.80;;;;;;5126642;28;20032;-56
2022/11/27 06:58:06;;;;;;;10.77;8.90;;;7.60;96.80;;;;;;5108069;28;20047;-55
2022/11/27 07:00:31;;;;;;;10.55;8.95;;;7.70;96.80;;;;;;5108110;28;20020;-56
2022/11/27 07:02:57;;;;;;;10.10;8.88;;;7.60;96.80;;;;;;5108351;28;20036;-56
2022/11/27 07:05:22;;;;;;;11.70;8.98;;;7.70;96.70;;;;;;5091378;28;20050;-56
2022/11/27 07:07:48;;;;;;;11.55;8.70;;;7.60;96.70;;;;;;5091344;28;20039;-56
2022/11/27 07:10:13;;;;;;;11.90;9.00;;;7.60;96.60;;;;;;5126704;28;20087;-56
2022/11/27 07:12:39;;;;;;;10.57;8.35;;;7.60;96.60;;;;;;5091205;28;20036;-55
2022/11/27 07:15:05;;;;;;;11.32;8.68;;;7.70;96.60;;;;;;5125689;28;20043;-56
2022/11/27 07:17:31;;;;;;;10.52;8.43;;;7.70;96.60;;;;;;5107791;28;20026;-55
2022/11/27 07:19:56;;;;;;;9.85;8.18;;;7.60;96.50;;;;;;5126231;28;20036;-55
2022/11/27 07:22:22;;;;;;;10.48;8.15;;;7.60;96.50;;;;;;5107925;28;20027;-56
2022/11/27 07:24:47;;;;;;;10.10;8.63;;;7.60;96.50;;;;;;5107905;28;20042;-56
2022/11/27 07:27:13;;;;;;;12.57;8.10;;;7.70;96.50;;;;;;5107879;28;20384;-55
2022/11/27 07:29:39;;;;;;;10.50;8.20;;;7.70;96.40;;;;;;5126129;28;20032;-55
2022/11/27 07:32:04;;;;;;;9.00;7.68;;;7.60;96.30;;;;;;5107771;28;20049;-56
2022/11/27 07:34:30;;;;;;;9.30;8.02;;;7.70;96.30;;;;;;5126004;28;20023;-55
2022/11/27 07:36:55;;;;;;;13.77;7.88;;;7.70;96.30;;;;;;5125758;28;20016;-56
2022/11/27 07:39:21;;;;;;;10.40;8.07;;;7.70;96.30;;;;;;5125945;28;20052;-56
2022/11/27 07:41:46;;;;;;;9.88;7.90;;;7.70;96.20;;;;;;5125601;28;20046;-56
2022/11/27 07:44:12;;;;;;;12.90;9.20;;;7.70;96.20;;;;;;5107823;28;20027;-55
2022/11/27 07:46:37;;;;;;;9.50;7.90;;;7.70;96.10;;;;;;5107676;28;20032;-56
2022/11/27 07:49:03;;;;;;;9.90;7.45;;;7.70;96.10;;;;;;5125799;28;20080;-55
2022/11/27 07:51:28;;;;;;;11.05;8.00;;;7.70;96.20;;;;;;5090647;28;20499;-55
2022/11/27 07:53:54;;;;;;;12.13;8.68;;;7.70;96.20;;;;;;5073580;28;20046;-56
2022/11/27 07:56:20;;;;;;;10.43;8.18;;;7.70;96.20;;;;;;5125542;28;20024;-55
2022/11/27 07:58:45;;;;;;;11.48;8.25;;;7.70;96.20;;;;;;5125428;28;20139;-55
2022/11/27 08:01:13;;;;;;;10.40;8.02;;;7.70;96.10;;;;;;5107534;28;20460;-56
2022/11/27 08:03:39;;;;;;;11.13;8.02;;;7.70;96.10;;;;;;5107505;28;20027;-56
2022/11/27 08:06:11;;;;;;;9.88;8.48;;;7.70;96.10;;;;;;5125548;28;20055;-55
2022/11/27 08:08:37;;;;;;;10.65;9.02;;;7.70;96.10;;;;;;5091477;28;20032;-55
2022/11/27 08:11:02;;;;;;;9.55;8.55;;;7.70;96.00;;;;;;5125549;28;20073;-55
2022/11/27 08:13:28;;;;;;;11.50;8.75;;;7.70;96.00;;;;;;5107259;28;20030;-55
2022/11/27 08:15:53;;;;;;;11.40;8.95;;;7.70;96.00;;;;;;5125146;28;20031;-56
2022/11/27 08:18:19;;;;;;;9.52;8.18;;;7.70;96.00;;;;;;5089935;28;20027;-56
2022/11/27 08:20:44;;;;;;;10.18;8.15;;;7.70;96.00;;;;;;5107052;28;20019;-56
2022/11/27 08:23:10;;;;;;;9.98;8.07;;;7.70;96.00;;;;;;5125352;28;20081;-56
2022/11/27 08:25:36;;;;;;;10.48;8.63;;;7.70;96.00;;;;;;5106949;28;20064;-56
2022/11/27 08:28:02;;;;;;;12.27;8.77;;;7.70;96.00;;;;;;5110445;28;20049;-56
2022/11/27 08:30:28;;;;;;;11.05;8.70;;;7.80;96.00;;;;;;5111573;28;20028;-56
2022/11/27 08:32:53;;;;;;;10.35;8.13;;;7.80;95.90;;;;;;5111583;28;20053;-56
2022/11/27 08:35:19;;;;;;;10.25;8.57;;;7.80;96.00;;;;;;5129434;28;20052;-56
2022/11/27 08:37:44;;;;;;;8.80;7.75;;;7.80;95.90;;;;;;5129613;28;20061;-56
2022/11/27 08:40:10;;;;;;;10.38;8.73;;;7.80;95.90;;;;;;5129552;28;20480;-56
2022/11/27 08:42:36;;;;;;;11.80;8.75;;;7.80;95.90;;;;;;5110899;28;20103;-56
2022/11/27 08:45:01;;;;;;;9.93;8.13;;;7.80;95.80;;;;;;5111069;28;20024;-56
2022/11/27 08:47:27;;;;;;;9.48;8.23;;;7.80;95.80;;;;;;5093999;28;20035;-56
2022/11/27 08:49:52;;;;;;;11.30;8.20;;;7.80;95.80;;;;;;5110927;28;20122;-56
2022/11/27 08:52:19;;;;;;;9.95;8.45;;;7.80;95.80;;;;;;5110909;28;20461;-55
2022/11/27 08:54:44;;;;;;;10.38;8.50;;;7.80;95.80;;;;;;5110979;28;20020;-56
2022/11/27 08:57:10;;;;;;;10.50;8.20;;;7.80;95.80;;;;;;5110701;28;20038;-56
2022/11/27 08:59:35;;;;;;;10.10;8.32;;;7.80;95.80;;;;;;5110965;28;20032;-56
2022/11/27 09:02:01;;;;;;;10.30;8.90;;;7.80;95.80;;;;;;5126130;28;20024;-55
2022/11/27 09:04:27;;;;;;;9.65;8.05;;;7.80;95.80;;;;;;5106758;28;20039;-55
2022/11/27 09:06:53;;;;;;;9.70;8.05;;;7.80;95.80;;;;;;5092522;28;20036;-56
2022/11/27 09:09:18;;;;;;;12.02;8.20;;;7.90;95.80;;;;;;5110238;28;20051;-56
2022/11/27 09:11:44;;;;;;;8.82;7.60;;;7.80;95.70;;;;;;5129158;28;20110;-56
2022/11/27 09:14:09;;;;;;;15.10;8.57;;;7.80;95.80;;;;;;5110333;28;20050;-55
2022/11/27 09:16:35;;;;;;;11.50;8.25;;;7.80;95.80;;;;;;5110047;28;20039;-56
2022/11/27 09:19:01;;;;;;;11.02;8.52;;;7.80;95.80;;;;;;5128708;28;20031;-56
2022/11/27 09:21:27;;;;;;;12.55;8.40;;;7.90;95.80;;;;;;5092116;28;20030;-55
2022/11/27 09:23:53;;;;;;;19.25;9.10;;;7.80;95.80;;;;;;5110205;28;20425;-56
2022/11/27 09:26:19;;;;;;;16.17;9.38;;;7.90;95.80;;;;;;5110332;28;20153;-56
2022/11/27 09:28:44;;;;;;;37.28;10.85;;;7.90;95.80;;;;;;5110608;28;20031;-56
2022/11/27 09:31:12;;;;;;;35.63;11.48;;;7.90;95.80;;;;;;5128183;28;20028;-55
2022/11/27 09:33:38;;;;;;;46.60;11.38;;;7.90;95.80;;;;;;5109772;28;20023;-56
2022/11/27 09:36:05;;;;;;;70.88;13.30;;;7.90;95.90;;;;;;5109822;28;20077;-55
2022/11/27 09:38:31;;;;;;;49.72;13.13;;;7.90;95.90;;;;;;5092431;28;20024;-56
2022/11/27 09:40:59;;;;;;;44.22;12.48;;;8.00;95.90;;;;;;5127215;28;20031;-56
2022/11/27 09:43:30;;;;;;;63.53;13.60;;;8.00;95.90;;;;;;5108127;28;20050;-55
2022/11/27 09:45:59;;;;;;;92.28;14.88;;;8.00;95.90;;;;;;5109699;28;20061;-56
2022/11/27 09:48:32;;;;;;;79.60;14.57;;;8.10;96.00;;;;;;5109653;28;20087;-56
2022/11/27 09:50:57;;;;;;;94.78;15.05;;;8.10;96.10;;;;;;5109662;28;20100;-55
2022/11/27 09:53:45;;;;;;;91.07;17.35;;;8.10;96.10;;;;;;5109325;28;20051;-55
2022/11/27 09:56:11;;;;;;;92.10;16.52;;;8.20;96.20;;;;;;5092327;28;20039;-56
2022/11/27 09:58:38;;;;;;;101.97;16.50;;;8.20;96.20;;;;;;5109071;28;20028;-56
2022/11/27 10:01:31;;;;;;;291.02;32.83;;;8.20;96.30;;;;;;5126861;28;20020;-55
2022/11/27 10:03:57;;;;;;;116.70;19.30;;;8.30;96.30;;;;;;5106266;28;20057;-56
2022/11/27 10:07:00;;;;;;;119.57;19.15;;;8.30;96.30;;;;;;5126987;28;20414;-56
2022/11/27 10:09:41;;;;;;;98.13;17.20;;;8.40;96.40;;;;;;5124273;28;20042;-56
2022/11/27 10:12:25;;;;;;;99.38;17.48;;;8.40;96.50;;;;;;5125966;28;20050;-56
2022/11/27 10:14:58;;;;;;;131.70;24.00;;;8.40;96.40;;;;;;5126658;28;20031;-56
2022/11/27 10:17:47;;;;;;;107.35;16.48;;;8.50;96.40;;;;;;5127302;28;20032;-56
2022/11/27 10:20:34;;;;;;;134.32;19.75;;;8.50;96.40;;;;;;5108573;28;20448;-56
2022/11/27 10:23:18;;;;;;;109.95;18.25;;;8.50;96.50;;;;;;5108523;28;20404;-56
2022/11/27 10:25:45;;;;;;;131.13;20.17;;;8.60;96.50;;;;;;5124588;28;20469;-55
2022/11/27 10:28:40;;;;;;;103.90;18.92;;;8.60;96.40;;;;;;5108759;28;20553;-55
2022/11/27 10:31:11;;;;;;;110.43;19.80;;;8.60;96.50;;;;;;5107407;28;20039;-56
2022/11/27 10:33:46;;;;;;;119.50;19.00;;;8.70;96.50;;;;;;5106589;28;20024;-55
2022/11/27 10:36:31;;;;;;;;;;;8.70;96.40;;;;;;5108264;28;20043;-56
2022/11/27 10:38:56;;;;;;;148.93;21.20;;;8.70;96.40;;;;;;5107812;28;19930;-55
2022/11/27 10:41:39;;;;;;;147.77;22.88;;;8.80;96.40;;;;;;5107608;28;20028;-56
2022/11/27 10:44:18;;;;;;;178.98;23.80;;;8.80;96.40;;;;;;5108467;28;20095;-55
2022/11/27 10:46:44;;;;;;;152.70;23.58;;;8.80;96.40;;;;;;5108361;28;20023;-56
2022/11/27 10:49:09;;;;;;;154.02;21.08;;;8.80;96.40;;;;;;5107147;28;20038;-54
2022/11/27 10:51:35;;;;;;;128.32;22.85;;;8.90;96.40;;;;;;5106147;28;20039;-55
2022/11/27 10:54:01;;;;;;;186.25;27.98;;;8.90;96.40;;;;;;5107895;28;20032;-56
2022/11/27 10:56:35;;;;;;;200.48;28.58;;;8.90;96.40;;;;;;5107919;28;20042;-56
2022/11/27 10:59:05;;;;;;;236.20;30.88;;;8.90;96.50;;;;;;5108004;28;20024;-56
2022/11/27 11:01:42;;;;;;;202.52;28.45;;;9.00;96.50;;;;;;5107081;28;20129;-56
2022/11/27 11:04:09;;;;;;;216.80;27.38;;;8.90;96.50;;;;;;5107880;28;20468;-56
2022/11/27 11:06:40;;;;;;;169.63;24.70;;;9.00;96.60;;;;;;5107797;28;20040;-56
2022/11/27 11:09:12;;;;;;;297.17;36.88;;;9.00;96.90;;;;;;5107655;28;20027;-54
2022/11/27 11:11:38;;;;;;;284.98;34.70;;;9.00;96.60;;;;;;5105402;28;20028;-56
2022/11/27 11:14:03;;;;;;;197.75;27.48;;;9.10;96.70;;;;;;5107324;28;20042;-56
2022/11/27 11:16:29;;;;;;;215.30;29.08;;;9.10;96.70;;;;;;5106647;28;20028;-55
2022/11/27 11:18:55;;;;;;;226.05;29.25;;;9.10;96.70;;;;;;5107697;28;20019;-55
2022/11/27 11:21:32;;;;;;;213.75;26.65;;;9.20;96.80;;;;;;5107057;28;20468;-56
2022/11/27 11:24:11;;;;;;;176.88;26.23;;;9.20;96.70;;;;;;5107305;28;20051;-56
2022/11/27 11:26:38;;;;;;;169.98;25.73;;;9.20;96.60;;;;;;5107512;28;20091;-56
2022/11/27 11:29:13;;;;;;;201.25;26.35;;;9.30;96.60;;;;;;5107263;28;20035;-55
2022/11/27 11:31:39;;;;;;;177.02;25.02;;;9.30;96.50;;;;;;5089945;28;20034;-55
2022/11/27 11:34:24;;;;;;;193.57;26.55;;;9.30;96.50;;;;;;5089480;28;20035;-56
2022/11/27 11:37:17;;;;;;;171.73;25.88;;;9.40;96.70;;;;;;5106663;28;20031;-56
2022/11/27 11:39:47;;;;;;;176.88;22.80;;;9.40;96.40;;;;;;5107007;28;20028;-55
2022/11/27 11:42:30;;;;;;;161.20;24.08;;;9.40;96.30;;;;;;5106762;28;20387;-56
2022/11/27 11:45:12;;;;;;;152.50;24.15;;;9.50;96.30;;;;;;5106122;28;20024;-56
2022/11/27 11:47:58;;;;;;;188.52;24.90;;;9.50;96.20;;;;;;5106131;28;20031;-56
2022/11/27 11:50:44;;;;;;;179.95;26.27;;;9.60;96.30;;;;;;5106744;28;20051;-55
2022/11/27 11:53:23;;;;;;;222.37;25.37;;;9.60;96.30;;;;;;5106723;28;20031;-55
2022/11/27 11:56:15;;;;;;;175.02;26.48;;;9.60;96.30;;;;;;5105584;28;20110;-56
2022/11/27 11:58:57;;;;;;;188.75;25.83;;;9.70;96.30;;;;;;5096648;28;20081;-55
2022/11/27 12:01:29;;;;;;;259.60;28.80;;;9.70;96.30;;;;;;5106179;28;20020;-56
2022/11/27 12:05:01;;;;;;;222.57;28.20;;;9.70;96.30;;;;;;5105483;28;20023;-56
2022/11/27 12:07:51;;;;;;;201.68;28.27;;;9.80;96.30;;;;;;5061195;28;20060;-56
2022/11/27 12:10:44;;;;;;;222.63;27.17;;;9.80;96.40;;;;;;5124323;28;20153;-56
2022/11/27 12:13:19;;;;;;;209.15;27.77;;;9.80;96.70;;;;;;5103382;28;20032;-56
2022/11/27 12:16:03;;;;;;;196.55;27.75;;;9.90;96.40;;;;;;5104796;28;20023;-56
2022/11/27 12:18:35;;;;;;;194.45;24.00;;;9.90;96.30;;;;;;5088397;28;20074;-56
2022/11/27 12:21:16;;;;;;;256.05;31.55;;;9.90;96.50;;;;;;5116465;28;20039;-56
2022/11/27 12:24:05;;;;;;;150.57;24.02;;;10.00;96.10;;;;;;5105076;28;20039;-54
2022/11/27 12:26:35;;;;;;;221.90;27.08;;;10.00;96.00;;;;;;5102715;28;20096;-55
2022/11/27 12:29:32;;;;;;;225.43;29.65;;;10.00;96.00;;;;;;5095469;28;20035;-56
2022/11/27 12:32:19;;;;;;;210.38;25.17;;;10.00;96.10;;;;;;5105576;28;20059;-56
2022/11/27 12:35:00;;;;;;;200.07;27.00;;;10.00;95.90;;;;;;5124293;28;20111;-55
2022/11/27 12:37:45;;;;;;;187.38;27.35;;;10.10;95.80;;;;;;5105901;28;20480;-56
2022/11/27 12:40:24;;;;;;;194.03;27.83;;;10.00;95.80;;;;;;5106730;28;20488;-56
2022/11/27 12:43:07;;;;;;;279.27;33.55;;;10.10;95.90;;;;;;5105422;28;20277;-55
2022/11/27 12:45:40;;;;;;;254.73;31.20;;;10.10;95.80;;;;;;5092062;28;20040;-56
2022/11/27 12:48:38;;;;;;;220.02;28.70;;;10.10;95.70;;;;;;5085470;28;20153;-56
2022/11/27 12:51:28;;;;;;;212.15;26.50;;;10.20;95.60;;;;;;5086117;28;20036;-56
2022/11/27 12:54:12;;;;;;;194.73;26.42;;;10.20;95.60;;;;;;5085957;28;20074;-56